Appleton, Idaho
Current Conditions -  °F | °C
As of 12:53 AM on Thursday 23 Oct 2014 (Local Time) from KJER Reporting Station
Few Clouds Few Clouds  
Wind Chill:   Ceiling: Unl
Heat Index:   Visibility: 10mi
Dew Point: -2°   Wind: 15mph
Humidity: 50%   Direction: 40°NE
Pressure: 30.07"   Gusts: NA
Location:  42.7238°N, 114.338°W
Report Text: KJER 230653Z AUTO 04013KT 10SM FEW120 08/M02 A3007 RMK AO2 SLP172 T00831017 401610011
Loading
Personal Weather Stations






























Interactive Weather Map
Tropical Storm Tracking
New forecast layout! Learn more

10-Day Weather Forecast

Advertisements
Track Severe Weather on mobile